Time;durP1;ratioP1;P1;durP2;ratioP2;P2;SDS_P1;SDS_P2;PMS_P1;PMS_P2;Temp;Humidity;BMP_temperature;BMP_pressure;BME280_temperature;BME280_humidity;BME280_pressure;Samples;Min_cycle;Max_cycle;Signal;HPM_P1;HPM_P2
2022/09/03 00:00:07;;;;;;;5.47;3.20;;;;;;;13.64;46.96;100212.05;1660140;85;21082;-77
2022/09/03 00:02:48;;;;;;;6.42;3.62;;;;;;;13.64;46.96;100212.05;1715235;83;22741;-77
2022/09/03 00:05:49;;;;;;;4.78;3.27;;;;;;;13.64;46.84;100209.87;1715199;83;21068;-77
2022/09/03 00:08:32;;;;;;;3.80;3.50;;;;;;;13.64;46.84;100205.91;1715361;83;21080;-77
2022/09/03 00:11:20;;;;;;;4.83;3.72;;;;;;;13.65;46.98;100210.25;1698086;84;21085;-77
2022/09/03 00:14:10;;;;;;;6.12;3.52;;;;;;;13.64;46.92;100219.98;1715229;83;21367;-77
2022/09/03 00:17:02;;;;;;;4.55;3.15;;;;;;;13.65;46.95;100220.83;1715242;83;21805;-76
2022/09/03 00:19:36;;;;;;;4.20;2.92;;;;;;;13.65;46.89;100220.39;1697106;84;21051;-74
2022/09/03 00:22:10;;;;;;;3.58;3.10;;;;;;;13.64;46.92;100213.36;1715189;83;21047;-77
2022/09/03 00:24:39;;;;;;;6.97;3.10;;;;;;;13.66;46.97;100219.92;1698340;84;21623;-77
2022/09/03 00:27:24;;;;;;;4.50;3.30;;;;;;;13.65;46.91;100219.07;1715429;83;21230;-77
2022/09/03 00:29:58;;;;;;;8.80;3.30;;;;;;;13.65;46.93;100227.00;1698303;84;27065;-77
2022/09/03 00:32:53;;;;;;;5.00;3.20;;;;;;;13.65;46.84;100216.42;1715228;83;27207;-77
2022/09/03 00:35:34;;;;;;;3.95;3.20;;;;;;;13.67;46.97;100219.02;1715666;83;21120;-78
2022/09/03 00:38:01;;;;;;;3.30;2.72;;;;;;;13.66;47.29;100222.09;1716641;83;21057;-77
2022/09/03 00:40:56;;;;;;;3.83;3.08;;;;;;;13.68;47.06;100220.72;1718393;83;21103;-77
2022/09/03 00:43:55;;;;;;;4.55;2.70;;;;;;;13.66;47.04;100211.98;1718295;83;21239;-78
2022/09/03 00:46:45;;;;;;;7.10;2.80;;;;;;;13.67;46.81;100215.91;1703595;84;22053;-76
2022/09/03 00:49:38;;;;;;;3.00;2.72;;;;;;;13.67;46.74;100215.05;1718017;83;21590;-78
2022/09/03 00:52:51;;;;;;;5.60;3.10;;;;;;;13.66;46.72;100211.98;1703499;84;21081;-77
2022/09/03 00:55:28;;;;;;;6.95;3.00;;;;;;;13.64;46.81;100213.36;1674937;85;21042;-77
2022/09/03 00:58:16;;;;;;;3.70;2.75;;;;;;;13.62;46.86;100213.03;1717894;83;21153;-77
2022/09/03 01:00:42;;;;;;;3.35;3.02;;;;;;;13.61;46.87;100220.08;1674181;84;21502;-78
2022/09/03 01:03:40;;;;;;;3.17;2.70;;;;;;;13.61;46.98;100217.44;1671109;83;21945;-77
2022/09/03 01:06:20;;;;;;;2.67;2.40;;;;;;;13.62;46.94;100223.14;1703306;84;21521;-77
2022/09/03 01:09:13;;;;;;;2.75;2.55;;;;;;;13.62;47.03;100219.64;1678517;83;21720;-77
2022/09/03 01:12:12;;;;;;;4.50;2.98;;;;;;;13.62;47.21;100224.47;1702422;84;21235;-76
2022/09/03 01:15:06;;;;;;;5.65;2.52;;;;;;;13.63;47.19;100220.88;1703326;84;21079;-77
2022/09/03 01:18:02;;;;;;;2.85;2.55;;;;;;;13.62;47.22;100219.17;1703307;84;21092;-77
2022/09/03 01:20:40;;;;;;;9.10;2.65;;;;;;;13.61;47.14;100220.08;1687291;84;21504;-77
2022/09/03 01:23:37;;;;;;;3.85;2.67;;;;;;;13.62;47.55;100219.17;1703384;84;21094;-78
2022/09/03 01:26:27;;;;;;;5.47;2.83;;;;;;;13.62;47.73;100224.47;1703434;84;21711;-78
2022/09/03 01:29:21;;;;;;;5.33;2.70;;;;;;;13.63;47.34;100220.88;1666746;84;21068;-77
2022/09/03 01:32:08;;;;;;;3.33;2.50;;;;;;;13.63;47.17;100220.88;1703304;84;22402;-78
2022/09/03 01:34:55;;;;;;;4.90;2.75;;;;;;;13.63;47.00;100223.52;1703245;84;21611;-77
2022/09/03 01:37:39;;;;;;;3.25;2.25;;;;;;;13.61;46.84;100220.08;1701974;83;21583;-77
2022/09/03 01:40:19;;;;;;;2.85;2.50;;;;;;;13.60;46.61;100224.98;1693159;84;21144;-77
2022/09/03 01:43:10;;;;;;;8.60;2.75;;;;;;;13.59;46.51;100223.25;1693190;84;21600;-77
2022/09/03 01:45:53;;;;;;;3.25;2.40;;;;;;;13.57;46.67;100214.52;1693230;84;21017;-78
2022/09/03 01:48:42;;;;;;;4.33;2.35;;;;;;;13.59;46.86;100223.25;1693231;84;21091;-77
2022/09/03 01:51:23;;;;;;;4.55;2.60;;;;;;;13.57;46.62;100223.77;1693281;84;21083;-78
2022/09/03 01:54:38;;;;;;;4.20;2.70;;;;;;;13.57;46.51;100223.77;1667772;84;21716;-77
2022/09/03 01:57:55;;;;;;;8.35;2.40;;;;;;;13.55;46.37;100224.28;1693037;84;21140;-78
2022/09/03 02:00:21;;;;;;;2.62;2.27;;;;;;;13.55;46.30;100222.97;1693493;84;21028;-77
2022/09/03 02:02:50;;;;;;;6.08;2.47;;;;;;;13.56;46.50;100216.73;1693048;84;21010;-77
2022/09/03 02:05:23;;;;;;;2.83;2.52;;;;;;;13.56;46.35;100223.35;1693412;84;21065;-77
2022/09/03 02:08:07;;;;;;;2.67;2.45;;;;;;;13.56;46.42;100222.03;1693235;83;21366;-78
2022/09/03 02:10:47;;;;;;;2.77;2.47;;;;;;;13.57;46.34;100219.80;1693401;84;20997;-77
2022/09/03 02:13:24;;;;;;;5.60;3.02;;;;;;;13.56;46.50;100219.38;1693176;84;21123;-78
2022/09/03 02:15:52;;;;;;;6.30;3.30;;;;;;;13.54;46.52;100219.44;1693329;84;21064;-76
2022/09/03 02:18:29;;;;;;;4.65;2.67;;;;;;;13.54;46.45;100221.23;1693248;84;21068;-77
2022/09/03 02:20:57;;;;;;;4.40;2.55;;;;;;;13.54;46.55;100217.26;1693441;84;22265;-77
2022/09/03 02:23:24;;;;;;;3.87;2.52;;;;;;;13.51;46.54;100216.89;1693164;84;21524;-77
2022/09/03 02:25:55;;;;;;;5.17;2.67;;;;;;;13.50;46.68;100217.83;1693435;84;21076;-78
2022/09/03 02:28:22;;;;;;;4.58;3.22;;;;;;;13.48;46.79;100224.08;1693096;84;21558;-77
2022/09/03 02:30:49;;;;;;;5.45;3.00;;;;;;;13.47;46.98;100222.38;1693059;84;21018;-77
2022/09/03 02:33:16;;;;;;;3.02;2.47;;;;;;;13.46;47.00;100227.23;1693473;84;21122;-77
2022/09/03 02:35:42;;;;;;;4.30;2.77;;;;;;;13.45;47.07;100224.17;1693090;84;21613;-77
2022/09/03 02:38:18;;;;;;;7.40;3.50;;;;;;;13.43;47.18;100222.05;1694763;84;21669;-77
2022/09/03 02:40:45;;;;;;;5.28;3.02;;;;;;;13.42;47.23;100221.20;1697219;84;21095;-77
2022/09/03 02:43:17;;;;;;;5.22;2.85;;;;;;;13.43;47.21;100228.66;1697814;84;21574;-77
2022/09/03 02:45:49;;;;;;;4.55;2.87;;;;;;;13.41;47.33;100223.42;1697925;83;21142;-78
2022/09/03 02:48:20;;;;;;;5.25;2.90;;;;;;;13.41;47.29;100224.75;1698238;84;21123;-77
2022/09/03 02:50:46;;;;;;;2.98;2.75;;;;;;;13.41;47.36;100230.03;1697732;84;21069;-76
2022/09/03 02:53:13;;;;;;;5.22;2.52;;;;;;;13.42;47.53;100234.89;1698111;84;21052;-76
2022/09/03 02:55:39;;;;;;;4.87;2.98;;;;;;;13.41;47.64;100231.36;1697774;84;21166;-76
2022/09/03 02:58:07;;;;;;;3.55;2.77;;;;;;;13.39;47.56;100230.55;1697972;84;21309;-76
2022/09/03 03:00:35;;;;;;;7.78;3.10;;;;;;;13.38;47.50;100229.70;1697980;84;21130;-77
2022/09/03 03:03:03;;;;;;;5.30;2.65;;;;;;;13.37;47.61;100226.64;1697935;84;21127;-75
2022/09/03 03:05:51;;;;;;;4.37;2.75;;;;;;;13.38;47.72;100232.34;1698060;84;21139;-76
2022/09/03 03:08:20;;;;;;;3.12;2.75;;;;;;;13.37;47.84;100233.25;1698085;84;21079;-77
2022/09/03 03:10:48;;;;;;;2.77;2.58;;;;;;;13.36;47.83;100229.33;1697862;84;21171;-78
2022/09/03 03:13:16;;;;;;;5.65;2.75;;;;;;;13.36;47.93;100229.33;1698032;84;21179;-78
2022/09/03 03:15:43;;;;;;;4.90;2.83;;;;;;;13.36;47.90;100226.69;1698117;84;21087;-78
2022/09/03 03:18:13;;;;;;;5.60;2.60;;;;;;;13.35;47.86;100231.13;1698102;84;21075;-78
2022/09/03 03:20:41;;;;;;;8.88;3.52;;;;;;;13.36;48.04;100231.55;1698035;84;21504;-76
2022/09/03 03:23:07;;;;;;;4.10;3.10;;;;;;;13.37;48.11;100235.04;1697956;84;21211;-78
2022/09/03 03:25:35;;;;;;;4.97;3.27;;;;;;;13.35;48.15;100236.41;1697732;84;21143;-78
2022/09/03 03:28:03;;;;;;;3.87;2.98;;;;;;;13.36;48.28;100244.76;1698328;84;21724;-78
2022/09/03 03:30:30;;;;;;;5.45;3.05;;;;;;;13.36;48.27;100242.11;1698132;84;21761;-78
2022/09/03 03:32:56;;;;;;;7.47;3.05;;;;;;;13.37;48.30;100247.78;1698318;84;21190;-78
2022/09/03 03:35:23;;;;;;;5.40;3.33;;;;;;;13.37;48.36;100245.14;1698042;84;21143;-77
2022/09/03 03:37:50;;;;;;;7.50;3.50;;;;;;;13.38;48.44;100254.81;1697924;84;21071;-76
2022/09/03 03:40:17;;;;;;;7.58;3.65;;;;;;;13.39;48.73;100251.70;1698019;84;21135;-78
2022/09/03 03:42:43;;;;;;;6.72;3.27;;;;;;;13.40;49.04;100253.44;1698100;84;21135;-78
2022/09/03 03:45:10;;;;;;;5.08;3.15;;;;;;;13.38;49.20;100250.84;1698215;84;21142;-77
2022/09/03 03:47:36;;;;;;;5.22;3.77;;;;;;;13.38;49.40;100250.84;1698061;84;21230;-77
2022/09/03 03:50:04;;;;;;;6.05;3.80;;;;;;;13.38;49.25;100248.20;1698131;84;21079;-77
2022/09/03 03:52:30;;;;;;;6.45;3.67;;;;;;;13.39;49.29;100256.98;1698133;84;21025;-77
2022/09/03 03:54:57;;;;;;;8.88;3.60;;;;;;;13.40;49.29;100252.55;1698089;84;21072;-77
2022/09/03 03:57:24;;;;;;;7.75;4.58;;;;;;;13.42;49.45;100270.11;1698186;84;21013;-78
2022/09/03 03:59:50;;;;;;;5.40;3.87;;;;;;;13.42;49.77;100281.15;1698210;84;21092;-77
2022/09/03 04:02:17;;;;;;;10.48;4.17;;;;;;;13.34;50.35;100286.21;1698003;84;21041;-77
2022/09/03 04:04:44;;;;;;;6.65;3.85;;;;;;;13.22;50.52;100274.70;1697951;84;21370;-77
2022/09/03 04:07:11;;;;;;;8.08;4.35;;;;;;;13.13;50.44;100274.56;1698281;84;21049;-77
2022/09/03 04:09:37;;;;;;;6.67;3.75;;;;;;;13.14;50.87;100281.55;1698080;84;21127;-77
2022/09/03 04:12:07;;;;;;;8.15;4.05;;;;;;;13.13;50.87;100276.31;1698140;84;21128;-76
2022/09/03 04:14:34;;;;;;;8.68;3.92;;;;;;;13.13;51.08;100280.28;1698029;84;21032;-77
2022/09/03 04:17:01;;;;;;;8.53;3.75;;;;;;;13.14;51.30;100274.95;1697836;84;21037;-77
2022/09/03 04:19:31;;;;;;;7.40;4.17;;;;;;;13.18;51.00;100281.88;1698351;84;21036;-77
2022/09/03 04:21:57;;;;;;;7.17;3.85;;;;;;;13.22;50.83;100281.78;1698107;84;21535;-77
2022/09/03 04:24:24;;;;;;;5.30;3.92;;;;;;;13.26;50.76;100278.96;1698266;84;21813;-77
2022/09/03 04:26:52;;;;;;;4.62;3.30;;;;;;;13.31;51.96;100280.98;1697746;84;21004;-77
2022/09/03 04:29:20;;;;;;;10.72;3.80;;;;;;;13.35;52.18;100280.02;1698237;84;21025;-78
2022/09/03 04:34:32;;;;;;;5.25;3.95;;;;;;;13.44;52.56;100276.20;1698299;84;21077;-77
2022/09/03 04:36:58;;;;;;;6.10;3.42;;;;;;;13.48;52.59;100275.63;1698008;84;21274;-78
2022/09/03 04:39:25;;;;;;;5.85;3.47;;;;;;;13.53;53.15;100276.33;1695531;84;21063;-77
2022/09/03 04:41:51;;;;;;;9.25;3.98;;;;;;;13.55;52.80;100274.52;1693182;84;21147;-77
2022/09/03 04:44:18;;;;;;;6.47;3.30;;;;;;;13.58;52.62;100282.32;1693246;84;22000;-77
2022/09/03 04:46:47;;;;;;;5.00;3.47;;;;;;;13.62;52.42;100276.50;1693371;84;21672;-78
2022/09/03 04:49:13;;;;;;;6.78;3.37;;;;;;;13.65;52.26;100282.53;1693311;84;22006;-77
2022/09/03 04:51:40;;;;;;;5.28;3.40;;;;;;;13.68;51.82;100271.82;1693394;84;21591;-77
2022/09/03 04:54:09;;;;;;;10.75;3.33;;;;;;;13.70;51.50;100271.34;1693162;84;21091;-77
2022/09/03 04:56:37;;;;;;;6.30;3.75;;;;;;;13.72;51.57;100270.81;1693352;84;21099;-78
2022/09/03 04:59:08;;;;;;;5.97;3.50;;;;;;;13.77;51.91;100275.06;1693184;84;21584;-77
2022/09/03 05:01:36;;;;;;;7.25;3.80;;;;;;;13.79;51.36;100267.96;1693232;84;22064;-77
2022/09/03 05:04:04;;;;;;;6.70;3.55;;;;;;;13.81;50.90;100272.73;1693476;84;21064;-77
2022/09/03 05:06:31;;;;;;;5.65;3.50;;;;;;;13.83;50.80;100266.45;1693139;84;21158;-77
2022/09/03 05:08:57;;;;;;;5.92;3.30;;;;;;;13.86;50.42;100269.45;1692883;84;21123;-77
2022/09/03 05:11:26;;;;;;;4.15;3.20;;;;;;;13.86;50.49;100270.31;1693164;84;21115;-78
2022/09/03 05:13:56;;;;;;;5.45;3.10;;;;;;;13.88;50.63;100267.14;1693242;84;21156;-78
2022/09/03 05:16:23;;;;;;;15.43;3.52;;;;;;;13.91;50.67;100263.07;1693569;84;21154;-79
2022/09/03 05:18:54;;;;;;;5.72;3.47;;;;;;;13.95;51.06;100265.14;1693245;84;21626;-81
2022/09/03 05:21:21;;;;;;;4.60;2.85;;;;;;;13.97;51.62;100262.44;1693395;84;21187;-80
2022/09/03 05:23:52;;;;;;;8.58;3.52;;;;;;;13.99;51.95;100261.48;1693316;84;21143;-81
2022/09/03 05:26:21;;;;;;;11.55;3.98;;;;;;;14.02;52.41;100265.34;1693154;84;21556;-80
2022/09/03 05:28:54;;;;;;;7.47;3.25;;;;;;;14.05;52.27;100267.84;1693531;84;21080;-80
2022/09/03 05:31:21;;;;;;;3.72;3.00;;;;;;;14.07;52.31;100266.03;1691976;84;21495;-80
2022/09/03 05:33:50;;;;;;;11.33;3.80;;;;;;;14.09;52.29;100269.48;1693644;84;21622;-80
2022/09/03 05:36:19;;;;;;;7.67;3.85;;;;;;;14.11;52.56;100254.40;1693195;84;21065;-80
2022/09/03 05:38:46;;;;;;;8.90;3.95;;;;;;;14.13;53.03;100260.48;1692435;84;21560;-80
2022/09/03 05:41:13;;;;;;;6.78;3.83;;;;;;;14.17;52.55;100257.73;1684322;85;21037;-80
2022/09/03 05:43:41;;;;;;;5.97;3.65;;;;;;;14.20;52.45;100265.56;1684235;84;21641;-81
2022/09/03 05:46:11;;;;;;;8.23;3.92;;;;;;;14.22;52.52;100265.92;1677203;85;21436;-80
2022/09/03 05:48:39;;;;;;;4.37;3.20;;;;;;;14.24;52.62;100261.86;1676816;85;21524;-80
2022/09/03 05:51:15;;;;;;;8.83;3.55;;;;;;;14.26;52.45;100261.37;1676935;84;21659;-79
2022/09/03 05:53:42;;;;;;;5.20;3.72;;;;;;;14.29;52.54;100265.23;1676672;84;21578;-81
2022/09/03 05:56:11;;;;;;;9.55;3.62;;;;;;;14.32;52.73;100265.09;1676943;84;21040;-81
2022/09/03 05:58:43;;;;;;;10.25;3.80;;;;;;;14.38;52.56;100270.63;1676942;85;21052;-81
2022/09/03 06:01:22;;;;;;;18.98;4.72;;;;;;;14.43;52.86;100265.55;1676809;85;21752;-80
2022/09/03 06:03:58;;;;;;;7.95;3.47;;;;;;;14.49;52.95;100265.33;1676808;85;21152;-79
2022/09/03 06:06:25;;;;;;;6.95;3.95;;;;;;;14.55;53.16;100270.83;1677024;85;21625;-80
2022/09/03 06:08:59;;;;;;;10.10;3.95;;;;;;;14.60;52.99;100262.27;1676828;85;21550;-80
2022/09/03 06:11:28;;;;;;;5.87;3.95;;;;;;;14.65;52.20;100262.95;1677185;85;21159;-80
2022/09/03 06:14:00;;;;;;;10.25;4.08;;;;;;;14.71;51.77;100259.22;1676700;85;21159;-81
2022/09/03 06:16:27;;;;;;;6.17;3.92;;;;;;;14.77;51.18;100252.33;1676864;85;22380;-80
2022/09/03 06:18:54;;;;;;;7.00;4.12;;;;;;;14.84;51.19;100255.16;1676846;85;21570;-80
2022/09/03 06:21:21;;;;;;;8.60;4.22;;;;;;;14.93;51.00;100255.67;1676825;85;21655;-80
2022/09/03 06:23:52;;;;;;;4.60;4.00;;;;;;;15.00;50.24;100250.55;1676886;85;21120;-80
2022/09/03 06:26:19;;;;;;;9.28;4.70;;;;;;;15.08;50.04;100253.75;1676990;85;21080;-81
2022/09/03 06:28:47;;;;;;;7.20;4.67;;;;;;;15.17;49.89;100257.33;1676878;85;21149;-80
2022/09/03 06:31:16;;;;;;;9.30;4.85;;;;;;;15.24;49.61;100251.30;1676820;85;21087;-80
2022/09/03 06:33:42;;;;;;;6.95;5.08;;;;;;;15.31;48.79;100253.23;1677147;85;21562;-80
2022/09/03 06:36:12;;;;;;;7.33;4.80;;;;;;;15.36;48.53;100259.20;1676720;85;21644;-80
2022/09/03 06:38:39;;;;;;;7.30;4.53;;;;;;;15.42;48.65;100259.80;1676899;84;21083;-80
2022/09/03 06:41:10;;;;;;;8.73;5.00;;;;;;;15.48;48.60;100254.69;1683698;84;21163;-80
2022/09/03 06:43:40;;;;;;;5.28;4.12;;;;;;;15.56;48.13;100256.55;1656082;85;22346;-80
2022/09/03 06:46:12;;;;;;;5.72;4.40;;;;;;;15.65;47.84;100249.12;1676207;85;21114;-80
2022/09/03 06:48:40;;;;;;;8.28;4.08;;;;;;;15.72;47.40;100252.78;1684173;85;21060;-79
2022/09/03 06:51:21;;;;;;;11.50;3.95;;;;;;;15.81;47.57;100259.49;1656100;85;21116;-80
2022/09/03 06:53:55;;;;;;;14.05;4.55;;;;;;;15.91;47.52;100255.50;1676456;85;40104;-81
2022/09/03 06:56:25;;;;;;;7.80;4.30;;;;;;;16.02;47.16;100258.13;1684110;85;21086;-81
2022/09/03 06:58:52;;;;;;;6.97;4.28;;;;;;;16.08;47.08;100247.24;1674993;85;21056;-81
2022/09/03 07:01:29;;;;;;;9.40;4.03;;;;;;;16.16;47.01;100243.30;1684850;85;21078;-80
2022/09/03 07:03:59;;;;;;;6.17;4.17;;;;;;;16.27;46.84;100245.47;1684566;85;21084;-81
2022/09/03 07:06:28;;;;;;;6.28;4.20;;;;;;;16.37;45.57;100255.65;1685094;84;21103;-81
2022/09/03 07:08:56;;;;;;;9.75;4.60;;;;;;;16.42;45.74;100245.19;1684033;84;21606;-81
2022/09/03 07:11:25;;;;;;;12.60;4.28;;;;;;;16.50;45.38;100246.17;1656037;86;21089;-80
2022/09/03 07:13:54;;;;;;;8.08;4.40;;;;;;;16.56;45.13;100252.53;1676679;85;21135;-81
2022/09/03 07:16:24;;;;;;;7.28;3.87;;;;;;;16.60;44.80;100255.90;1684361;85;21091;-80
2022/09/03 07:18:51;;;;;;;7.20;3.92;;;;;;;16.63;45.05;100259.74;1656238;86;21147;-82
2022/09/03 07:21:23;;;;;;;9.08;4.20;;;;;;;16.67;45.01;100259.97;1676320;85;21115;-80
2022/09/03 07:23:50;;;;;;;7.65;3.62;;;;;;;16.70;44.99;100262.02;1684452;85;21078;-80
2022/09/03 07:26:23;;;;;;;8.15;4.10;;;;;;;16.74;44.56;100253.90;1656255;86;21092;-80
2022/09/03 07:28:49;;;;;;;7.67;3.60;;;;;;;16.79;44.99;100255.39;1676509;85;21095;-80
2022/09/03 07:31:30;;;;;;;5.70;3.37;;;;;;;16.85;45.39;100263.58;1684384;85;21120;-81
2022/09/03 07:33:58;;;;;;;5.83;3.70;;;;;;;16.92;45.27;100263.67;1703458;83;21072;-80
2022/09/03 07:36:27;;;;;;;6.85;2.90;;;;;;;16.99;45.01;100263.75;1684255;84;21431;-81
2022/09/03 07:38:56;;;;;;;7.75;3.22;;;;;;;17.08;44.93;100264.64;1656077;86;21104;-81
2022/09/03 07:41:24;;;;;;;5.53;3.55;;;;;;;17.20;44.53;100266.30;1672682;85;21085;-81
2022/09/03 07:43:51;;;;;;;10.75;3.15;;;;;;;17.30;44.25;100264.89;1672780;85;21161;-81
2022/09/03 07:46:22;;;;;;;6.95;3.00;;;;;;;17.40;43.88;100266.15;1714935;83;21745;-82
2022/09/03 07:48:56;;;;;;;9.05;3.22;;;;;;;17.49;43.47;100271.94;1698074;84;21081;-81
2022/09/03 07:51:27;;;;;;;6.20;2.98;;;;;;;17.56;43.30;100261.36;1715248;83;21634;-80
2022/09/03 07:53:56;;;;;;;5.95;3.02;;;;;;;17.65;42.86;100258.20;1697870;84;21537;-78
2022/09/03 07:56:24;;;;;;;4.55;3.33;;;;;;;17.75;42.58;100259.48;1715075;83;21235;-79
2022/09/03 07:58:51;;;;;;;4.67;3.25;;;;;;;17.81;42.19;100262.28;1698327;84;21094;-80
2022/09/03 08:01:20;;;;;;;3.42;2.95;;;;;;;17.85;42.38;100262.97;1715239;83;21084;-80
2022/09/03 08:03:49;;;;;;;8.68;3.10;;;;;;;17.86;42.37;100257.56;1698143;84;21050;-79
2022/09/03 08:06:17;;;;;;;5.22;3.10;;;;;;;17.90;42.48;100256.96;1715488;83;21029;-81
2022/09/03 08:08:44;;;;;;;5.37;3.20;;;;;;;17.95;41.81;100253.58;1698116;84;21125;-80
2022/09/03 08:11:15;;;;;;;4.25;3.25;;;;;;;17.98;41.73;100253.42;1715169;83;21162;-79
2022/09/03 08:14:01;;;;;;;6.78;3.08;;;;;;;18.01;41.51;100257.26;1698023;83;21521;-80
2022/09/03 08:16:31;;;;;;;4.67;3.08;;;;;;;18.04;41.28;100264.20;1715413;83;21100;-80
2022/09/03 08:18:57;;;;;;;5.53;3.10;;;;;;;18.08;41.22;100254.64;1715392;83;21530;-81
2022/09/03 08:21:25;;;;;;;7.30;3.52;;;;;;;18.11;40.69;100247.83;1698126;84;21142;-81
2022/09/03 08:24:01;;;;;;;7.78;3.10;;;;;;;18.13;40.77;100253.92;1669761;85;21098;-80
2022/09/03 08:26:23;;;;;;;6.47;2.92;;;;;;;18.09;41.13;100241.73;1714403;83;21085;-80
2022/09/03 08:28:51;;;;;;;3.17;2.67;;;;;;;18.13;41.00;100253.92;1698187;83;21030;-80
2022/09/03 08:31:21;;;;;;;4.22;3.00;;;;;;;18.19;41.14;100254.93;1715313;83;21025;-80
2022/09/03 08:33:50;;;;;;;5.08;3.22;;;;;;;18.27;41.06;100250.98;1715527;83;21145;-79
2022/09/03 08:36:22;;;;;;;6.58;2.85;;;;;;;18.35;40.95;100254.08;1715098;83;21068;-80
2022/09/03 08:38:53;;;;;;;10.72;3.10;;;;;;;18.45;40.85;100255.77;1698176;84;21022;-81
2022/09/03 08:41:35;;;;;;;6.37;2.62;;;;;;;18.50;40.20;100246.56;1717082;83;21025;-81
2022/09/03 08:44:23;;;;;;;3.98;2.15;;;;;;;18.51;39.70;100237.64;1703768;83;21046;-80
2022/09/03 08:47:07;;;;;;;10.50;2.77;;;;;;;18.49;39.36;100234.20;1718105;83;21204;-81
2022/09/03 08:49:50;;;;;;;5.95;2.05;;;;;;;18.52;39.53;100234.01;1703050;83;21093;-80
2022/09/03 08:52:31;;;;;;;4.72;1.90;;;;;;;18.57;39.09;100229.27;1717967;83;21151;-81
2022/09/03 08:55:21;;;;;;;2.47;1.80;;;;;;;18.68;39.46;100225.17;1703466;84;21505;-81
2022/09/03 08:58:04;;;;;;;5.30;1.57;;;;;;;18.79;38.75;100221.88;1718310;83;21101;-81
2022/09/03 09:00:51;;;;;;;8.93;2.05;;;;;;;18.90;38.69;100219.01;1691710;84;21732;-81
2022/09/03 09:03:54;;;;;;;5.15;1.30;;;;;;;19.00;38.12;100217.16;1702710;83;21084;-81
2022/09/03 09:06:32;;;;;;;3.80;1.75;;;;;;;19.09;38.06;100216.59;1717979;83;21638;-81
2022/09/03 09:09:22;;;;;;;1.60;1.50;;;;;;;19.23;37.29;100218.44;1703250;84;22217;-81
2022/09/03 09:12:34;;;;;;;6.28;1.35;;;;;;;19.30;37.32;100220.66;1718342;83;21126;-81
2022/09/03 09:15:30;;;;;;;4.33;1.40;;;;;;;19.39;36.96;100208.58;1673450;85;21233;-81
2022/09/03 09:18:15;;;;;;;3.17;1.80;;;;;;;19.46;36.67;100214.41;1718422;83;22036;-81
2022/09/03 09:21:02;;;;;;;5.67;2.62;;;;;;;19.51;36.37;100209.64;1703901;84;21081;-81
2022/09/03 09:23:38;;;;;;;3.45;1.95;;;;;;;19.52;36.22;100213.16;1697286;84;21078;-80
2022/09/03 09:26:08;;;;;;;4.22;1.82;;;;;;;19.48;37.09;100216.49;1702912;84;21135;-82
2022/09/03 09:28:37;;;;;;;3.92;1.70;;;;;;;19.41;37.08;100212.00;1703497;84;21584;-82
2022/09/03 09:31:08;;;;;;;2.45;2.00;;;;;;;19.39;37.09;100223.25;1703143;84;21416;-81
2022/09/03 09:33:35;;;;;;;7.70;2.10;;;;;;;19.40;37.03;100225.44;1703753;84;21119;-81
2022/09/03 09:36:05;;;;;;;6.00;2.10;;;;;;;19.43;36.51;100219.47;1703196;84;21174;-82
2022/09/03 09:38:35;;;;;;;5.47;2.22;;;;;;;19.43;35.87;100222.59;1703595;84;21175;-81
2022/09/03 09:41:16;;;;;;;4.17;1.50;;;;;;;19.28;36.41;100221.23;1693420;84;21786;-82
2022/09/03 09:43:42;;;;;;;3.92;1.90;;;;;;;19.22;36.38;100220.26;1684181;85;21163;-82
2022/09/03 09:46:22;;;;;;;4.15;1.70;;;;;;;19.22;36.89;100224.27;1684320;85;21068;-81
2022/09/03 09:48:58;;;;;;;3.58;1.70;;;;;;;19.28;36.79;100227.03;1676954;85;21154;-81
2022/09/03 09:51:30;;;;;;;4.03;1.75;;;;;;;19.34;37.13;100221.34;1676971;85;21043;-81
2022/09/03 09:54:12;;;;;;;2.40;1.50;;;;;;;19.42;37.19;100216.41;1677160;84;21111;-81
2022/09/03 09:56:39;;;;;;;5.65;1.90;;;;;;;19.48;36.53;100221.38;1676923;85;21115;-81
2022/09/03 09:59:08;;;;;;;2.55;1.77;;;;;;;19.49;36.33;100223.56;1661430;85;21194;-81
2022/09/03 10:01:43;;;;;;;4.30;2.25;;;;;;;19.47;36.52;100222.80;1676906;85;21157;-82
2022/09/03 10:04:12;;;;;;;4.20;2.00;;;;;;;19.53;36.75;100221.08;1676776;85;21123;-81
2022/09/03 10:06:58;;;;;;;2.50;1.98;;;;;;;19.59;37.06;100222.53;1677006;85;21123;-81
2022/09/03 10:09:27;;;;;;;3.20;2.08;;;;;;;19.63;36.54;100224.90;1676896;85;21170;-82
2022/09/03 10:12:25;;;;;;;4.45;2.12;;;;;;;19.65;36.58;100225.69;1677167;85;21115;-81
2022/09/03 10:15:22;;;;;;;6.45;1.90;;;;;;;19.66;36.61;100227.39;1676950;85;21163;-82
2022/09/03 10:18:27;;;;;;;1.60;1.50;;;;;;;19.68;36.39;100228.14;1676616;84;21167;-81
2022/09/03 10:21:03;;;;;;;2.77;1.80;;;;;;;19.66;36.29;100231.88;1677060;84;21429;-81
2022/09/03 10:23:34;;;;;;;4.72;2.00;;;;;;;19.64;36.16;100227.12;1676912;85;21076;-81
2022/09/03 10:26:13;;;;;;;4.53;1.55;;;;;;;19.62;36.38;100227.20;1676965;85;21028;-81
2022/09/03 10:28:41;;;;;;;8.78;2.02;;;;;;;19.63;36.45;100224.90;1676800;85;22110;-80
2022/09/03 10:31:42;;;;;;;2.02;1.82;;;;;;;19.64;36.11;100215.95;1677140;85;21079;-81
2022/09/03 10:34:36;;;;;;;5.30;1.85;;;;;;;19.67;36.30;100221.59;1676800;84;21222;-81
2022/09/03 10:37:14;;;;;;;3.87;1.80;;;;;;;19.65;36.04;100218.13;1677087;85;21591;-79
2022/09/03 10:40:10;;;;;;;7.30;1.57;;;;;;;19.66;36.03;100206.03;1676907;85;21004;-81
2022/09/03 10:42:55;;;;;;;8.45;2.10;;;;;;;19.72;35.87;100209.27;1701077;84;21019;-81
2022/09/03 10:45:30;;;;;;;3.33;1.98;;;;;;;19.74;36.12;100210.06;1715511;83;21178;-81
2022/09/03 10:48:31;;;;;;;3.15;1.85;;;;;;;19.76;36.03;100205.52;1700941;84;21161;-80
2022/09/03 10:51:26;;;;;;;4.80;2.15;;;;;;;19.78;35.76;100206.27;1715760;83;21540;-81
2022/09/03 10:54:07;;;;;;;5.80;2.17;;;;;;;19.81;35.95;100200.25;1701484;84;21114;-81
2022/09/03 10:56:52;;;;;;;3.15;1.70;;;;;;;19.85;36.10;100207.59;1715473;83;21139;-82
2022/09/03 10:59:50;;;;;;;6.65;2.50;;;;;;;19.88;36.07;100197.22;1716149;83;20997;-80
2022/09/03 11:02:30;;;;;;;3.05;2.30;;;;;;;19.91;36.00;100199.21;1715479;83;21685;-81
2022/09/03 11:05:07;;;;;;;3.47;2.15;;;;;;;19.91;36.05;100202.37;1701289;83;21595;-81
2022/09/03 11:07:40;;;;;;;4.83;2.22;;;;;;;19.98;35.76;100205.88;1715908;83;21080;-81
2022/09/03 11:10:27;;;;;;;3.22;2.30;;;;;;;20.04;35.80;100203.31;1701178;83;21011;-80
2022/09/03 11:13:05;;;;;;;2.55;1.92;;;;;;;20.13;36.21;100198.71;1715797;83;21123;-82
2022/09/03 11:16:00;;;;;;;2.62;2.10;;;;;;;20.23;36.27;100198.98;1715863;83;21113;-80
2022/09/03 11:18:50;;;;;;;2.65;2.42;;;;;;;20.33;36.39;100198.77;1700109;84;21023;-80
2022/09/03 11:21:25;;;;;;;7.92;2.60;;;;;;;20.47;35.97;100191.67;1716039;83;21649;-81
2022/09/03 11:24:12;;;;;;;3.83;2.35;;;;;;;20.55;35.69;100177.34;1701081;84;21034;-80
2022/09/03 11:26:47;;;;;;;4.62;2.70;;;;;;;20.57;35.17;100184.77;1715814;83;21175;-81
2022/09/03 11:29:22;;;;;;;2.75;2.33;;;;;;;20.57;35.10;100183.43;1666959;84;21805;-80
2022/09/03 11:31:57;;;;;;;6.97;2.62;;;;;;;20.56;35.55;100175.90;1715998;83;21025;-80
2022/09/03 11:34:27;;;;;;;;;;;;;;;20.57;35.40;100178.09;1718133;83;22044;-81
2022/09/03 11:37:25;;;;;;;5.22;2.65;;;;;;;20.60;34.74;100173.88;1701507;84;20201;-81
2022/09/03 11:40:08;;;;;;;3.17;2.87;;;;;;;20.58;35.02;100175.80;1715809;83;21194;-82
2022/09/03 11:42:41;;;;;;;4.55;2.72;;;;;;;20.58;35.05;100179.81;1715272;83;22415;-81
2022/09/03 11:45:31;;;;;;;3.40;2.52;;;;;;;20.55;35.58;100174.17;1697962;84;21141;-81
2022/09/03 11:47:58;;;;;;;9.20;3.00;;;;;;;20.59;35.75;100162.80;1715303;83;21056;-81
2022/09/03 11:50:31;;;;;;;6.60;2.85;;;;;;;20.64;35.59;100160.70;1688732;83;21132;-80
2022/09/03 11:53:11;;;;;;;6.58;3.02;;;;;;;20.70;35.42;100160.30;1698365;84;21101;-81
2022/09/03 11:55:57;;;;;;;5.37;2.75;;;;;;;20.74;35.37;100159.13;1713566;83;21322;-81
2022/09/03 11:58:33;;;;;;;3.75;3.00;;;;;;;20.80;34.79;100153.02;1715469;83;21103;-81
2022/09/03 12:01:03;;;;;;;3.85;2.85;;;;;;;20.83;34.99;100146.10;1698007;84;21046;-81
2022/09/03 12:03:43;;;;;;;6.08;2.83;;;;;;;20.85;35.17;100150.40;1715550;83;21166;-81